^^

Nearby METAR Reports

 

LIRH - Frosinone (it-Af, Italy
Distance from station: SO 5km
Dati ricevuti: 20/01/2020 18:55
Non Attivo
Sereno
Sereno
 Vento da E
Vento: E 6 km/h
Temperatura: 7°C
P.to Rugiada: 4°C
Umidità: 81%
Barometro: 1034 hPa
Summary: Sereno
Visibility: greater than 10 km
2020/01/20 17:55 LIRH 201755Z 08003KT CAVOK 07/04 Q1034
LIRL - Latina (it-Afb), Italy
Distance from station: OSO 40km
Dati ricevuti: 20/01/2020 18:55
Non Attivo
Parz. nuvoloso
Parz. nuvoloso
 Vento da NNO
Vento: NNO 6 km/h
Temperatura: 9°C
P.to Rugiada: 6°C
Umidità: 82%
Barometro: 1034 hPa
Clouds: Parz. nuvoloso
Visibility: 10 km
Cloud details: Parz. nuvoloso 2438 m
2020/01/20 17:55 LIRL 201755Z 33003KT 9999 SCT080 09/06 Q1034
 
LIRG - Guidonia (it-Afb, Italy
Distance from station: NO 63km
Dati ricevuti: 20/01/2020 18:55
Non Attivo
Sereno
Sereno
 Vento da NNE
Vento: NNE 6 km/h
Temperatura: 7°C
P.to Rugiada: 4°C
Umidità: 81%
Barometro: 1035 hPa
Summary: Sereno
Visibility: greater than 10 km
2020/01/20 17:55 LIRG 201755Z 02003KT CAVOK 07/04 Q1035
LIRA - Ciampino(It-Afb/, Italy
Distance from station: ONO 64km
Dati ricevuti: 21/01/2020 01:20
Sereno
Sereno
 Vento da ENE
Vento: ENE 19 km/h
Temperatura: 9°C
Temperatura del Vento: 6°C
P.to Rugiada: -2°C
Umidità: 46%
Barometro: 1036 hPa
Summary: Sereno
Visibility: greater than 10 km
2020/01/21 00:20 LIRA 210020Z 07010KT CAVOK 09/M02 Q1036
 
LIRU - Roma/Urbe (it-Af, Italy
Distance from station: ONO 76km
Dati ricevuti: 20/01/2020 16:50
Non Attivo
Few Clouds
Few Clouds
 Vento da NNE
Vento: NNE 13 km/h
Temperatura: 11°C
P.to Rugiada: 2°C
Umidità: 54%
Barometro: 1034 hPa
Clouds: Few Clouds
Visibility: 10 km
Cloud details: Few Clouds 1372 m
2020/01/20 15:50 LIRU 201550Z 02007KT 9999 FEW045 11/02 Q1034
LIRE - Pratica Di Mare(, Italy
Distance from station: O 77km
Dati ricevuti: 21/01/2020 00:55
Few Clouds
Few Clouds
 Vento da NNE
Vento: NNE 11 km/h
Temperatura: 8°C
Temperatura del Vento: 6°C
P.to Rugiada: 5°C
Umidità: 82%
Barometro: 1036 hPa
Clouds: Few Clouds
Visibility: 10 km
Cloud details: Few Clouds 1219 m
2020/01/20 23:55 LIRE 202355Z 02006KT 9999 FEW040 08/05 Q1036 RMK SCT SCT100 VIS MIN 9999 WIND THR13 03006KT WIND THR31 02006KT BLU
 
LIQN - Rieti, Italy
Distance from station: NNO 92km
Dati ricevuti: 20/01/2020 17:50
Non Attivo
Sereno
Sereno
 Vento da ESE
Vento: ESE 11 km/h
Temperatura: 8°C
Temperatura del Vento: 6°C
P.to Rugiada: -1°C
Umidità: 53%
Barometro: 1034 hPa
Summary: Sereno
Visibility: greater than 10 km
2020/01/20 16:50 LIQN 201650Z 11006KT CAVOK 08/M01 Q1034
LIRK - Terminillo, Italy
Distance from station: NNO 93km
Dati ricevuti: 28/12/2019 23:55
Non Attivo

 Vento da varies
Vento: varies 50 km/h, Raffica: 78 km/h
Temperatura: -8°C
Temperatura del Vento: -19°C
P.to Rugiada: -14°C
Umidità: 62%
Barometro: 1021 hPa
2019/12/28 22:55 LIRK 282255Z AUTO VRB27G42KT //// M08/M14 Q1021
 
LIRF - Roma/Fiumicino, Italy
Distance from station: O 94km
Dati ricevuti: 21/01/2020 01:20
Sereno
Sereno
 Vento da NE
Vento: NE 15 km/h
Temperatura: 7°C
Temperatura del Vento: 4°C
P.to Rugiada: 1°C
Umidità: 66%
Barometro: 1037 hPa
Summary: Sereno
Visibility: greater than 10 km
2020/01/21 00:20 LIRF 210020Z 05008KT CAVOK 07/01 Q1037 NOSIG
LIRM - Grazzanise (it-A, Italy
Distance from station: SE 94km
Dati ricevuti: 21/01/2020 00:55
Sereno
Sereno
 Vento da NE
Vento: NE 22 km/h
Temperatura: 7°C
Temperatura del Vento: 4°C
P.to Rugiada: 0°C
Umidità: 61%
Barometro: 1037 hPa
Summary: Sereno
Visibility: greater than 10 km
2020/01/20 23:55 LIRM 202355Z 05012KT CAVOK 07/M00 Q1037
 
LIBP - Pescara, Italy
Distance from station: NE 108km
Dati ricevuti: 21/01/2020 00:50
Parz. nuvoloso
Parz. nuvoloso
 Vento da SSO
Vento: SSO 6 km/h
Temperatura: 3°C
P.to Rugiada: 2°C
Umidità: 93%
Barometro: 1042 hPa
Clouds: Parz. nuvoloso
Visibility: 10 km
Cloud details: Parz. nuvoloso 1494 m
2020/01/20 23:50 LIBP 202350Z AUTO 21003KT 9999 SCT049/// 03/02 Q1042
LIRN - Napoli/Capodichino, Italy
Distance from station: SE 120km
Dati ricevuti: 21/01/2020 01:20
Sereno
Sereno
 Vento da NE
Vento: NE 13 km/h
Temperatura: 8°C
Temperatura del Vento: 6°C
P.to Rugiada: 2°C
Umidità: 66%
Barometro: 1037 hPa
Clouds: Sereno
Visibility: 10 km
2020/01/21 00:20 LIRN 210020Z AUTO 05007KT 9999 NCD 08/02 Q1037
 
LIRV - Viterbo (it-Mil), Italy
Distance from station: NO 133km
Dati ricevuti: 20/01/2020 19:55
Non Attivo
Few Clouds
Few Clouds
 Vento da NE
Vento: NE 24 km/h
Temperatura: 7°C
Temperatura del Vento: 3°C
P.to Rugiada: 0°C
Umidità: 61%
Barometro: 1035 hPa
Clouds: Few Clouds
Visibility: 10 km
Cloud details: Few Clouds 1219 m
2020/01/20 18:55 LIRV 201855Z 04013KT 9999 FEW040 07/00 Q1035
LIQC - Capri, Italy
Distance from station: SSE 145km
Dati ricevuti: 21/01/2020 00:55
Sereno
Sereno
 Vento da E
Vento: E 13 km/h
Temperatura: 12°C
P.to Rugiada: 4°C
Umidità: 58%
Barometro: 1036 hPa
Summary: Sereno
Visibility: greater than 10 km
2020/01/20 23:55 LIQC 202355Z 08007KT CAVOK 12/04 Q1036 RMK SKC QUK / QUL / VIS MAR 20 KM VIS MIN 9999
 
LIRT - Trevico, Italy
Distance from station: ESE 172km
Dati ricevuti: 21/01/2020 00:55
Nebbia
Nebbia
 Vento da ENE
Vento: ENE 17 km/h
Temperatura: 0°C
Temperatura del Vento: -4°C
P.to Rugiada: -2°C
Umidità: 87%
Barometro: 1035 hPa
Summary: Nebbia
Visibility: 0 km
2020/01/20 23:55 LIRT 202355Z 07009KT 0000 FG VV/// 00/M02 Q1035 RMK MON INVIS VAL INVIS VIS MIN 0000
LIRZ - Perugia, Italy
Distance from station: NNO 172km
Dati ricevuti: 21/01/2020 00:50
Parz. nuvoloso
Parz. nuvoloso
 Vento da N
Vento: N 17 km/h
Temperatura: 6°C
Temperatura del Vento: 3°C
P.to Rugiada: 0°C
Umidità: 66%
Barometro: 1039 hPa
Clouds: Parz. nuvoloso
Visibility: 10 km
Cloud details: Parz. nuvoloso 3658 m
2020/01/20 23:50 LIRZ 202350Z AUTO 01009KT 9999 SCT120/// 06/00 Q1039
 
LIRI - Pontecagnano (af, Italy
Distance from station: SE 177km
Dati ricevuti: 20/01/2020 16:50
Non Attivo
Molto nuvoloso
Molto nuvoloso
 Vento da N
Vento: N 22 km/h
Temperatura: 11°C
P.to Rugiada: 2°C
Umidità: 54%
Barometro: 1034 hPa
Clouds: Molto nuvoloso
Visibility: 10 km
Cloud details: Parz. nuvoloso 914 m
Molto nuvoloso 2134 m
2020/01/20 15:50 LIRI 201550Z 01012KT 9999 SCT030 BKN070 11/02 Q1034
LIBF - Foggia/Gino Lisa, Italy
Distance from station: E 183km
Dati ricevuti: 20/01/2020 15:50
Non Attivo
Parz. nuvoloso
Parz. nuvoloso
 Vento da NO
Vento: NO 9 km/h
Temperatura: 9°C
Temperatura del Vento: 7°C
P.to Rugiada: 3°C
Umidità: 66%
Barometro: 1037 hPa
Clouds: Parz. nuvoloso
Visibility: 10 km
Cloud details: Parz. nuvoloso 1219 m
2020/01/20 14:50 LIBF 201450Z 31005KT 9999 SCT040 09/03 Q1037
 
LIQO - Monte Argentario, Italy
Distance from station: ONO 195km
Dati ricevuti: 18/01/2020 10:55
Non Attivo
Nebbia
Nebbia
 Vento da NO
Vento: NO 11 km/h
Temperatura: 8°C
Temperatura del Vento: 6°C
P.to Rugiada: 5°C
Umidità: 82%
Barometro: 1019 hPa
Summary: Nebbia
Visibility: 0 km
2020/01/18 09:55 LIQO 180955Z 32006KT 0000 FG VV/// 08/05 Q1019 RMK VAL INVIS VIS MIN 0000
LIBA - Amendola (it-Afb, Italy
Distance from station: E 198km
Dati ricevuti: 21/01/2020 00:55
Few Clouds
Few Clouds
 Vento da O
Vento: O 9 km/h
Temperatura: 5°C
Temperatura del Vento: 3°C
P.to Rugiada: 4°C
Umidità: 93%
Barometro: 1040 hPa
Clouds: Few Clouds
Visibility: 10 km
Cloud details: Few Clouds 914 m
2020/01/20 23:55 LIBA 202355Z 27005KT 9999 FEW030 05/04 Q1040 RMK BKN BKN150 VIS MIN 9999 WIND THR11 27005KT WIND THR29 /////KT BLU
 
LIBN - Lecce (it-Afb), Italy
Dati ricevuti: 21/01/2020 00:55
Sereno
Sereno
 Vento da NNO
Vento: NNO 6 km/h
Temperatura: 8°C
P.to Rugiada: 6°C
Umidità: 87%
Barometro: 1038 hPa
Summary: Sereno
Visibility: greater than 10 km
2020/01/20 23:55 LIBN 202355Z 34003KT CAVOK 08/06 Q1038 RMK SCT SCT200 VIS MIN 9999 WIND THR14 34004KT WIND THR32 33004KT BLU
LIPY - Ancona-Falconara, Italy
Dati ricevuti: 21/01/2020 00:50
Molto nuvoloso
Molto nuvoloso
 Vento da S
Vento: S 6 km/h
Temperatura: 4°C
P.to Rugiada: 1°C
Umidità: 81%
Barometro: 1041 hPa
Clouds: Molto nuvoloso
Visibility: 10 km
Cloud details: Few Clouds 4267 m
Molto nuvoloso 5182 m
2020/01/20 23:50 LIPY 202350Z AUTO 19003KT 9999 FEW140/// BKN170/// 04/01 Q1041
 
LICJ - Palermo-Punta Raisi, Italy
Dati ricevuti: 21/01/2020 01:20
Sereno
Sereno
 Vento da varies
Vento: varies 13 km/h, Raffica: 41 km/h
Temperatura: 15°C
P.to Rugiada: 6°C
Umidità: 55%
Barometro: 1032 hPa
Summary: Sereno
Visibility: greater than 10 km
2020/01/21 00:20 LICJ 210020Z VRB07G22KT CAVOK 15/06 Q1032
LIEB - Capo Bellavista, Italy
Dati ricevuti: 21/01/2020 00:55
Parz. nuvoloso
Parz. nuvoloso
 Vento da NNO
Vento: NNO 41 km/h, Raffica: 59 km/h
Temperatura: 13°C
P.to Rugiada: 12°C
Umidità: 94%
Barometro: 1030 hPa
Clouds: Parz. nuvoloso
Visibility: 8 km
Cloud details: Parz. nuvoloso 762 m
Parz. nuvoloso 1219 m
2020/01/20 23:55 LIEB 202355Z 33022G32KT 8000 SCT025 SCT040 13/12 Q1030 RMK OVC QUK / QUL / VIS MAR 8 KM MON INVIS VIS MIN 8000
 
LIEC - Capo Carbonara, Italy
Dati ricevuti: 21/01/2020 00:55
Molto nuvoloso
Molto nuvoloso
 Vento da ESE
Vento: ESE 59 km/h
Temperatura: 13°C
P.to Rugiada: 11°C
Umidità: 88%
Barometro: 1029 hPa
Clouds: Molto nuvoloso
Visibility: 10 km
Cloud details: Few Clouds 457 m
Molto nuvoloso 610 m
2020/01/20 23:55 LIEC 202355Z 11032KT 9999 FEW015 BKN020 13/11 Q1029 RMK OVC QUK / QUL / VIS MAR 12 KM VIS MIN 9999
LIED - Cagliari-Decimomannu(It-A, Italy
Dati ricevuti: 21/01/2020 00:55
Parz. nuvoloso
Parz. nuvoloso
 Vento da ESE
Vento: ESE 30 km/h
Temperatura: 14°C
P.to Rugiada: 10°C
Umidità: 77%
Barometro: 1027 hPa
Clouds: Parz. nuvoloso
Visibility: 10 km
Cloud details: Few Clouds 305 m
Parz. nuvoloso 914 m
2020/01/20 23:55 LIED 202355Z 11016KT 9999 FEW010 SCT030 14/10 Q1027 RMK BKN VIS MIN 9999 WIND THR35 12019KT WIND THR17 /////KT BLU
 
LIEE - Cagliari-Elmas(A, Italy
Dati ricevuti: 21/01/2020 01:20
Parz. nuvoloso
Parz. nuvoloso
 Vento da ESE
Vento: ESE 46 km/h, Raffica: 65 km/h
Temperatura: 15°C
P.to Rugiada: 10°C
Umidità: 72%
Barometro: 1028 hPa
Clouds: Parz. nuvoloso
Visibility: 10 km
Cloud details: Parz. nuvoloso 1524 m
2020/01/21 00:20 LIEE 210020Z 12025G35KT 9999 SCT050 15/10 Q1028
LIEO - Olbia-Costa Smeralda, Italy
Dati ricevuti: 21/01/2020 01:20
Molto nuvoloso
Molto nuvoloso
 Vento da E
Vento: E 31 km/h, Raffica: 54 km/h
Temperatura: 13°C
P.to Rugiada: 10°C
Umidità: 82%
Barometro: 1032 hPa
Clouds: Molto nuvoloso
Visibility: 10 km
Cloud details: Molto nuvoloso 610 m
2020/01/21 00:20 LIEO 210020Z 09017G29KT 060V120 9999 BKN020 13/10 Q1032
 
LIEA - Alghero, Italy
Dati ricevuti: 21/01/2020 01:20
Sereno
Sereno
 Vento da ENE
Vento: ENE 17 km/h
Temperatura: 12°C
P.to Rugiada: 9°C
Umidità: 82%
Barometro: 1029 hPa
Summary: Sereno
Visibility: greater than 10 km
2020/01/21 00:20 LIEA 210020Z 06009KT CAVOK 12/09 Q1029
LICA - Catanzaro-Lamezia Terme, Italy
Dati ricevuti: 20/01/2020 21:50
Non Attivo
Few Clouds
Few Clouds
 Vento da ENE
Vento: ENE 26 km/h
Temperatura: 13°C
P.to Rugiada: 6°C
Umidità: 63%
Barometro: 1035 hPa
Clouds: Few Clouds
Visibility: 10 km
Cloud details: Few Clouds 914 m
2020/01/20 20:50 LICA 202050Z 07014KT 9999 FEW030 13/06 Q1035
 
LIBQ - Cosenza-Monte Scuro, Italy
Dati ricevuti: 21/01/2020 00:55
Nebbia
Nebbia
 Vento da ENE
Vento: ENE 26 km/h
Temperatura: 0°C
Temperatura del Vento: -6°C
P.to Rugiada: 0°C
Umidità: 100%
Barometro: 1032 hPa
Summary: Nebbia
Visibility: 0 km
2020/01/20 23:55 LIBQ 202355Z 07014KT 0000 FG VV/// 00/00 Q1032 RMK MON INVIS VAL INVIS VIS MIN 0000
LICR - Reggio Calabria, Italy
Dati ricevuti: 20/01/2020 23:50
Non Attivo
Sereno
Sereno
 Vento da varies
Vento: varies 4 km/h
Temperatura: 13°C
P.to Rugiada: 4°C
Umidità: 55%
Barometro: 1034 hPa
Summary: Sereno
Visibility: greater than 10 km
2020/01/20 22:50 LICR 202250Z VRB02KT CAVOK 13/04 Q1034
 
LIBV - Bari-Gioia Del Colle, Italy
Dati ricevuti: 21/01/2020 00:55
Parz. nuvoloso
Parz. nuvoloso
 Vento da N
Vento: N 11 km/h
Temperatura: 7°C
Temperatura del Vento: 5°C
P.to Rugiada: 5°C
Umidità: 87%
Barometro: 1037 hPa
Clouds: Parz. nuvoloso
Visibility: 7 km
Cloud details: Parz. nuvoloso 610 m
Parz. nuvoloso 1067 m
2020/01/20 23:55 LIBV 202355Z 35006KT 7000 SCT020 SCT035 07/05 Q1037 RMK BKN VIS MIN 7000 WIND THR32 36007KT WIND THR14 35008KT WHT
LIBD - Bari-Palese Macchie, Italy
Dati ricevuti: 21/01/2020 01:20
Parz. nuvoloso
Parz. nuvoloso
 Vento da ONO
Vento: ONO 9 km/h
Temperatura: 8°C
Temperatura del Vento: 6°C
P.to Rugiada: 4°C
Umidità: 76%
Barometro: 1039 hPa
Clouds: Parz. nuvoloso
Visibility: 10 km
Cloud details: Parz. nuvoloso 1219 m
2020/01/21 00:20 LIBD 210020Z 29005KT 9999 SCT040 08/04 Q1039
 
LIBR - Brindisi-Casale, Italy
Dati ricevuti: 21/01/2020 01:20
Sereno
Sereno
 Vento da N
Vento: N 19 km/h
Temperatura: 11°C
P.to Rugiada: 5°C
Umidità: 67%
Barometro: 1039 hPa
Summary: Sereno
Visibility: greater than 10 km
2020/01/21 00:20 LIBR 210020Z 01010KT CAVOK 11/05 Q1039
LIRT - Trevico, Italy
Dati ricevuti: 21/01/2020 00:55
Nebbia
Nebbia
 Vento da ENE
Vento: ENE 17 km/h
Temperatura: 0°C
Temperatura del Vento: -4°C
P.to Rugiada: -2°C
Umidità: 87%
Barometro: 1035 hPa
Summary: Nebbia
Visibility: 0 km
2020/01/20 23:55 LIRT 202355Z 07009KT 0000 FG VV/// 00/M02 Q1035 RMK MON INVIS VAL INVIS VIS MIN 0000
 
LICB - Comiso, Italy
Dati ricevuti: 21/01/2020 00:50
Molto nuvoloso
Molto nuvoloso
 Vento da E
Vento: E 13 km/h
Temperatura: 13°C
P.to Rugiada: 9°C
Umidità: 77%
Barometro: 1033 hPa
Clouds: Molto nuvoloso
Visibility: 10 km
Cloud details: Molto nuvoloso 853 m
Molto nuvoloso 1189 m
2020/01/20 23:50 LICB 202350Z AUTO 10007KT 070V130 9999 BKN028/// BKN039/// 13/09 Q1033
LICL - Gela, Italy
Dati ricevuti: 20/01/2020 18:55
Non Attivo
Sereno
Sereno
 Vento da E
Vento: E 17 km/h
Temperatura: 13°C
P.to Rugiada: 10°C
Umidità: 82%
Barometro: 1030 hPa
Summary: Sereno
Visibility: greater than 10 km
2020/01/20 17:55 LICL 201755Z 08009KT CAVOK 13/10 Q1030 RMK BKN BKN070 QUK / QUL / VIS MAR 15 KM VIS MIN 9999
 
LIBN - Lecce (it-Afb), Italy
Dati ricevuti: 21/01/2020 00:55
Sereno
Sereno
 Vento da NNO
Vento: NNO 6 km/h
Temperatura: 8°C
P.to Rugiada: 6°C
Umidità: 87%
Barometro: 1038 hPa
Summary: Sereno
Visibility: greater than 10 km
2020/01/20 23:55 LIBN 202355Z 34003KT CAVOK 08/06 Q1038 RMK SCT SCT200 VIS MIN 9999 WIND THR14 34004KT WIND THR32 33004KT BLU
LICJ - Palermo-Punta Raisi, Italy
Dati ricevuti: 21/01/2020 01:20
Sereno
Sereno
 Vento da varies
Vento: varies 13 km/h, Raffica: 41 km/h
Temperatura: 15°C
P.to Rugiada: 6°C
Umidità: 55%
Barometro: 1032 hPa
Summary: Sereno
Visibility: greater than 10 km
2020/01/21 00:20 LICJ 210020Z VRB07G22KT CAVOK 15/06 Q1032
 
LICZ - Catania-Sigonella (nas), Italy
Dati ricevuti: 21/01/2020 00:55
Parz. nuvoloso
Parz. nuvoloso
 Vento da varies
Vento: varies 0 km/h
Temperatura: 12°C
P.to Rugiada: 12°C
Umidità: 100%
Barometro: 1035 hPa
Clouds: Parz. nuvoloso
Visibility: 10 km
Cloud details: Few Clouds 366 m
Parz. nuvoloso 1219 m
2020/01/20 23:55 LICZ 202355Z /////KT 9999 FEW012 SCT040 12/12 Q1035 RMK BKN VIS MIN 9999 WIND THR28 /////KT WIND THR10 /////KT A3057 BLU
LICC - Catania-Fontanarossa, Italy
Dati ricevuti: 21/01/2020 00:50
Parz. nuvoloso
Parz. nuvoloso
 Vento da ENE
Vento: ENE 37 km/h
Temperatura: 14°C
P.to Rugiada: 12°C
Umidità: 88%
Barometro: 1035 hPa
Clouds: Parz. nuvoloso
Visibility: 10 km
Cloud details: Parz. nuvoloso 914 m
Parz. nuvoloso 2134 m
2020/01/20 23:50 LICC 202350Z 07020KT 9999 SCT030 SCT070 14/12 Q1035
 
LICT - Trapani-Birgi (a, Italy
Dati ricevuti: 21/01/2020 00:55
Few Clouds
Few Clouds
 Vento da ENE
Vento: ENE 7 km/h
Temperatura: 11°C
P.to Rugiada: 8°C
Umidità: 82%
Barometro: 1032 hPa
Clouds: Few Clouds
Visibility: 10 km
Cloud details: Few Clouds 762 m
2020/01/20 23:55 LICT 202355Z 07004KT 9999 FEW025 11/08 Q1032
LICD - Agrigento-Lampedusa, Italy
Dati ricevuti: 21/01/2020 00:50
Sereno
Sereno
 Vento da ESE
Vento: ESE 41 km/h
Temperatura: 16°C
P.to Rugiada: 13°C
Umidità: 83%
Barometro: 1029 hPa
Clouds: Sereno
Visibility: 9 km
2020/01/20 23:50 LICD 202350Z AUTO 11022KT 9000 NCD 16/13 Q1029
 
LICG - Pantelleria(It-A, Italy
Dati ricevuti: 20/01/2020 19:50
Non Attivo
Parz. nuvoloso
Parz. nuvoloso
 Vento da ENE
Vento: ENE 28 km/h, Raffica: 46 km/h
Temperatura: 14°C
P.to Rugiada: 11°C
Umidità: 82%
Barometro: 1029 hPa
Clouds: Parz. nuvoloso
Visibility: 10 km
Cloud details: Parz. nuvoloso 457 m
2020/01/20 18:50 LICG 201850Z 07015G25KT 9999 SCT015 14/11 Q1029
LIPX - Villafranca(Cv/M, Italy
Dati ricevuti: 21/01/2020 01:20
Sereno
Sereno
 Vento da NNO
Vento: NNO 11 km/h
Temperatura: 0°C
Temperatura del Vento: -4°C
P.to Rugiada: -6°C
Umidità: 64%
Barometro: 1044 hPa
Summary: Sereno
Visibility: greater than 10 km
2020/01/21 00:20 LIPX 210020Z 33006KT CAVOK M00/M06 Q1044
 
LIPO - Brescia/Montichiari, Italy
Dati ricevuti: 21/01/2020 00:50
Sereno
Sereno
 Vento da NNO
Vento: NNO 9 km/h
Temperatura: 1°C
Temperatura del Vento: -2°C
P.to Rugiada: -3°C
Umidità: 75%
Barometro: 1044 hPa
Summary: Sereno
Visibility: greater than 10 km
2020/01/20 23:50 LIPO 202350Z 34005KT CAVOK 01/M03 Q1044
LIPL - Ghedi (it-Afb), Italy
Dati ricevuti: 21/01/2020 00:55
Sereno
Sereno
 Vento da NNO
Vento: NNO 7 km/h
Temperatura: -1°C
Temperatura del Vento: -4°C
P.to Rugiada: -2°C
Umidità: 93%
Barometro: 1044 hPa
Summary: Sereno
Visibility: greater than 10 km
2020/01/20 23:55 LIPL 202355Z 33004KT CAVOK M01/M02 Q1044 RMK SKC VIS MIN 9999 WIND THR31 /////KT WIND THR13 32004KT BLU
 
LIMP - Parma, Italy
Dati ricevuti: 20/01/2020 22:50
Non Attivo
Sereno
Sereno
 Vento da O
Vento: O 4 km/h
Temperatura: 1°C
P.to Rugiada: 1°C
Umidità: 100%
Barometro: 1045 hPa
Summary: Sereno
Visibility: greater than 10 km
2020/01/20 21:50 LIMP 202150Z 26002KT CAVOK 01/01 Q1045
LIMS - Piacenza (it-Afb, Italy
Dati ricevuti: 20/01/2020 18:55
Non Attivo
Sereno
Sereno
 Vento da SSO
Vento: SSO 6 km/h
Temperatura: 3°C
P.to Rugiada: 3°C
Umidità: 100%
Barometro: 1041 hPa
Summary: Sereno
Visibility: greater than 10 km
2020/01/20 17:55 LIMS 201755Z 21003KT CAVOK 03/03 Q1041
 
LIPF - Ferrara (aut), Italy
Dati ricevuti: 20/01/2020 18:55
Non Attivo
Sereno
Sereno
 Vento da NNE
Vento: NNE 7 km/h
Temperatura: 5°C
Temperatura del Vento: 3°C
P.to Rugiada: 0°C
Umidità: 70%
Barometro: 1042 hPa
Summary: Sereno
Visibility: greater than 10 km
2020/01/20 17:55 LIPF 201755Z 03004KT CAVOK 05/M00 Q1042
LIPE - Bologna/Borgo (a, Italy
Dati ricevuti: 21/01/2020 01:20
Sereno
Sereno
 Vento da OSO
Vento: OSO 9 km/h
Temperatura: 1°C
Temperatura del Vento: -2°C
P.to Rugiada: 0°C
Umidità: 93%
Barometro: 1044 hPa
Summary: Sereno
Visibility: greater than 10 km
2020/01/21 00:20 LIPE 210020Z 25005KT CAVOK 01/00 Q1044
 
LIPU - Padova (civ/It-A, Italy
Dati ricevuti: 19/01/2020 08:00
Non Attivo
Few Clouds
Few Clouds
 Vento da N
Vento: N 9 km/h
Temperatura: 6°C
Temperatura del Vento: 4°C
P.to Rugiada: 5°C
Umidità: 93%
Barometro: 1027 hPa
Clouds: Few Clouds
Visibility: 9 km
Cloud details: Few Clouds 457 m
2020/01/19 07:00 LIPU 190700Z 01005KT 9000 FEW015 06/05 Q1027
LIME - Bergamo/Orio Ser, Italy
Dati ricevuti: 21/01/2020 01:20
Sereno
Sereno
 Vento da N
Vento: N 7 km/h
Temperatura: 0°C
Temperatura del Vento: -3°C
P.to Rugiada: -5°C
Umidità: 69%
Barometro: 1044 hPa
Summary: Sereno
Visibility: greater than 10 km
2020/01/21 00:20 LIME 210020Z 01004KT CAVOK 00/M05 Q1044 NOSIG
 
LIMT - Cisa Pass, Italy
Dati ricevuti: 23/09/2019 13:55
Non Attivo
Nebbia
Nebbia
 Vento da calm
Vento: Calma
Temperatura: 10°C
P.to Rugiada: 10°C
Umidità: 100%
Barometro: 1014 hPa
Summary: Nebbia
Visibility: 0 km
2019/09/23 11:55 LIMT 231155Z 00000KT 0000 FG VV/// 10/10 Q1014 RMK MON INVIS VAL INVIS VIS MIN 0000
LIVC - Cimone Mountain, Italy
Dati ricevuti: 19/11/2019 13:55
Non Attivo
Light snow, Nebbia
Light snow, Nebbia
 Vento da SSO
Vento: SSO 30 km/h, Raffica: 52 km/h
Temperatura: 0°C
Temperatura del Vento: -6°C
P.to Rugiada: 0°C
Umidità: 100%
Barometro: 1012 hPa
Summary: Light snow, Nebbia
Visibility: 0 km
2019/11/19 12:55 LIVC 191255Z 21016G28KT 0000 -SN FG VV/// 00/M00 Q1012 RMK MON INVIS VAL INVIS VIS MIN 0000
 
LIVP - Paganella Mounta, Italy
Dati ricevuti: 20/01/2020 22:55
Non Attivo
Sereno
Sereno
 Vento da N
Vento: N 33 km/h
Temperatura: -8°C
Temperatura del Vento: -17°C
P.to Rugiada: -19°C
Umidità: 41%
Barometro: 1035 hPa
Summary: Sereno
Visibility: greater than 10 km
2020/01/20 21:55 LIVP 202155Z 01018KT CAVOK M08/M19 Q1035
LIML - Milano/Linate, Italy
Dati ricevuti: 21/01/2020 01:20
Sereno
Sereno
 Vento da N
Vento: N 2 km/h
Temperatura: 0°C
P.to Rugiada: -2°C
Umidità: 87%
Barometro: 1045 hPa
Summary: Sereno
Visibility: greater than 10 km
2020/01/21 00:20 LIML 210020Z 01001KT CAVOK 00/M02 Q1045 NOSIG
 
LIPS - Istrana (it-Afb), Italy
Dati ricevuti: 21/01/2020 00:55
Sereno
Sereno
 Vento da varies
Vento: varies 0 km/h
Temperatura: 3°C
P.to Rugiada: -1°C
Umidità: 75%
Barometro: 1045 hPa
Summary: Sereno
Visibility: greater than 10 km
2020/01/20 23:55 LIPS 202355Z /////KT CAVOK 03/M01 Q1045 RMK SKC VIS MIN 9999 WIND THR26 36003KT WIND THR08 36003KT BLU
LIPH - Treviso(Civ/It-A, Italy
Dati ricevuti: 21/01/2020 01:20
Sereno
Sereno
 Vento da NNO
Vento: NNO 7 km/h
Temperatura: 2°C
Temperatura del Vento: 0°C
P.to Rugiada: -3°C
Umidità: 70%
Barometro: 1044 hPa
Clouds: Sereno
Visibility: 10 km
2020/01/21 00:20 LIPH 210020Z AUTO 33004KT 9999 NCD 02/M03 Q1044
 
LIPZ - Venezia/Tessera, Italy
Dati ricevuti: 21/01/2020 01:20
Sereno
Sereno
 Vento da N
Vento: N 11 km/h
Temperatura: 2°C
Temperatura del Vento: -1°C
P.to Rugiada: -2°C
Umidità: 75%
Barometro: 1044 hPa
Summary: Sereno
Visibility: greater than 10 km
2020/01/21 00:20 LIPZ 210020Z 35006KT CAVOK 02/M02 Q1044 NOSIG
LIQW - Sarzana/Luni, Italy
Dati ricevuti: 20/01/2020 15:55
Non Attivo
Sereno
Sereno
 Vento da varies
Vento: varies 0 km/h
Temperatura: 10°C
P.to Rugiada: -7°C
Umidità: 30%
Barometro: 1036 hPa
Summary: Sereno
Visibility: greater than 10 km
2020/01/20 14:55 LIQW 201455Z /////KT CAVOK 10/M07 Q1036
 
LIVR - Rolle Pass, Italy
Dati ricevuti: 20/01/2020 21:55
Non Attivo
Sereno
Sereno
 Vento da N
Vento: N 6 km/h
Temperatura: -8°C
P.to Rugiada: -17°C
Umidità: 49%
Barometro: 1034 hPa
Summary: Sereno
Visibility: greater than 10 km
2020/01/20 20:55 LIVR 202055Z 35003KT CAVOK M08/M17 Q1034 RMK SKC MON LIB VIS MIN 9999
LIPK - Forli (civ/It-Af, Italy
Dati ricevuti: 20/01/2020 17:50
Non Attivo
Parz. nuvoloso
Parz. nuvoloso
 Vento da varies
Vento: varies 4 km/h
Temperatura: 7°C
P.to Rugiada: -2°C
Umidità: 53%
Barometro: 1041 hPa
Clouds: Parz. nuvoloso
Visibility: 10 km
Cloud details: Parz. nuvoloso 914 m
2020/01/20 16:50 LIPK 201650Z VRB02KT 9999 SCT030 07/M02 Q1041
 
LIMV - Giovi Pass, Italy
Dati ricevuti: 17/01/2020 18:55
Non Attivo
Pioviggine, Nuvoloso
Pioviggine, Nuvoloso
 Vento da varies
Vento: varies 0 km/h
Temperatura: 7°C
P.to Rugiada: 6°C
Umidità: 93%
Barometro: 1022 hPa
Summary: Pioviggine
Clouds: Molto nuvoloso
Visibility: 8 km
Cloud details: Parz. nuvoloso 213 m
Molto nuvoloso 274 m
2020/01/17 17:55 LIMV 171755Z /////KT 8000 -RA SCT007 BKN009 07/06 Q1022 RMK OVC MON CIME INC CUF VAL FOSCHIA VIS MIN 8000
LIPB - Bolzano(Civ/It-A, Italy
Dati ricevuti: 20/01/2020 22:50
Non Attivo
Sereno
Sereno
 Vento da varies
Vento: varies 2 km/h
Temperatura: -4°C
P.to Rugiada: -9°C
Umidità: 69%
Barometro: 1045 hPa
Summary: Sereno
Visibility: greater than 10 km
2020/01/20 21:50 LIPB 202150Z VRB01KT CAVOK M04/M09 Q1045
 
LIVD - Bolzano-Dobbiaco, Italy
Dati ricevuti: 20/01/2020 18:55
Non Attivo

 
2020/01/20 17:55 LIVD 201755Z ///02KT CAVOK M04/M11 Q1042 RMK SKC VIS MIN 9999
LIVE - Bolzano-Passo Resia, Italy
Dati ricevuti: 21/01/2020 00:55
Sereno
Sereno
 Vento da NNE
Vento: NNE 7 km/h
Temperatura: -9°C
Temperatura del Vento: -13°C
P.to Rugiada: -13°C
Umidità: 73%
Barometro: 1042 hPa
Summary: Sereno
Visibility: greater than 10 km
2020/01/20 23:55 LIVE 202355Z 02004KT CAVOK M09/M13 Q1042 RMK SKC VIS MIN 9999
 
LIMH - Aosta-Pian Rosa (mtn T, Italy
Dati ricevuti: 21/01/2020 00:55
Sereno
Sereno
 Vento da SE
Vento: SE 41 km/h
Temperatura: -12°C
Temperatura del Vento: -24°C
P.to Rugiada: -12°C
Umidità: 100%
Barometro: 1031 hPa
Summary: Sereno
Visibility: greater than 10 km
2020/01/20 23:55 LIMH 202355Z 13022KT CAVOK M12/M12 Q1031 RMK SKC MON LIB VAL FOSCHIA VIS MIN 9999
LIMZ - Cuneo/Levaldigi, Italy
Dati ricevuti: 20/01/2020 20:50
Non Attivo
Parz. nuvoloso
Parz. nuvoloso
 Vento da OSO
Vento: OSO 6 km/h
Temperatura: 0°C
P.to Rugiada: -2°C
Umidità: 87%
Barometro: 1043 hPa
Clouds: Parz. nuvoloso
Visibility: 10 km
Cloud details: Parz. nuvoloso 1219 m
2020/01/20 19:50 LIMZ 201950Z 24003KT 210V270 9999 SCT040 M00/M02 Q1043
 
LIMK - Torino-Bric Della Croce, Italy
Dati ricevuti: 20/01/2020 22:55
Non Attivo
Sereno
Sereno
 Vento da calm
Vento: Calma
Temperatura: 1°C
P.to Rugiada: -6°C
Umidità: 60%
Barometro: 1042 hPa
Summary: Sereno
Visibility: greater than 10 km
2020/01/20 21:55 LIMK 202155Z 00000KT CAVOK 01/M06 Q1042
LIMN - Novara-Cameri (it-Afb), Italy
Dati ricevuti: 20/01/2020 18:55
Non Attivo
Sereno
Sereno
 Vento da O
Vento: O 4 km/h
Temperatura: 3°C
P.to Rugiada: -4°C
Umidità: 60%
Barometro: 1041 hPa
Summary: Sereno
Visibility: greater than 10 km
2020/01/20 17:55 LIMN 201755Z 27002KT CAVOK 03/M04 Q1041 RMK SCT SCT200 VIS MIN 9999 BLU
 
LIPA - Pordenone-Aviano (it/Us-Af, Italy
Dati ricevuti: 20/01/2020 21:55
Non Attivo
Sereno
Sereno
 Vento da N
Vento: N 6 km/h
Temperatura: 2°C
P.to Rugiada: 0°C
Umidità: 87%
Barometro: 1044 hPa
Summary: Sereno
Visibility: greater than 10 km
2020/01/20 20:55 LIPA 202055Z 35003KT CAVOK 02/M00 Q1044 RMK SKC VIS MIN 9999 WIND THR05 /////KT WIND THR23 /////KT A3083 BLU
LIPI - Udine-Rivolto (it-Afb), Italy
Dati ricevuti: 20/01/2020 17:55
Non Attivo
Sereno
Sereno
 Vento da NE
Vento: NE 19 km/h
Temperatura: 6°C
Temperatura del Vento: 3°C
P.to Rugiada: -3°C
Umidità: 53%
Barometro: 1042 hPa
Summary: Sereno
Visibility: greater than 10 km
2020/01/20 16:55 LIPI 201655Z 05010KT CAVOK 06/M03 Q1042 RMK FEW FEW200 VIS MIN 9999 WIND THR06 08009KT WIND THR24 07009KT BLU
 
LIVO - Udine-Tarvisio, Italy
Dati ricevuti: 20/01/2020 18:55
Non Attivo
Parz. nuvoloso
Parz. nuvoloso
 Vento da ENE
Vento: ENE 7 km/h
Temperatura: 0°C
Temperatura del Vento: -3°C
P.to Rugiada: -5°C
Umidità: 69%
Barometro: 1042 hPa
Clouds: Parz. nuvoloso
Visibility: 10 km
Cloud details: Parz. nuvoloso 1067 m
2020/01/20 17:55 LIVO 201755Z 06004KT 9999 SCT035 00/M05 Q1042 RMK SCT VIS MIN 9999
LIPQ - Trieste-Ronchi Dei Legionari, Italy
Dati ricevuti: 21/01/2020 01:20
Sereno
Sereno
 Vento da N
Vento: N 7 km/h
Temperatura: -1°C
Temperatura del Vento: -4°C
P.to Rugiada: -2°C
Umidità: 93%
Barometro: 1043 hPa
Clouds: Sereno
Visibility: 10 km
2020/01/21 00:20 LIPQ 210020Z AUTO 01004KT 9999 NCD M01/M02 Q1043
 
LIVT - Trieste, Italy
Dati ricevuti: 20/01/2020 18:55
Non Attivo
Sereno
Sereno
 Vento da varies
Vento: varies 0 km/h
Temperatura: 7°C
P.to Rugiada: -2°C
Umidità: 53%
Barometro: 1041 hPa
Summary: Sereno
Visibility: greater than 10 km
2020/01/20 17:55 LIVT 201755Z /////KT CAVOK 07/M02 Q1041 RMK SKC QUK / QUL / VIS MAR 20 KM VIS MIN 9999
LIRQ - Firenze/Peretola, Italy
Dati ricevuti: 21/01/2020 01:20
Sereno
Sereno
 Vento da ONO
Vento: ONO 11 km/h
Temperatura: 8°C
Temperatura del Vento: 6°C
P.to Rugiada: 0°C
Umidità: 57%
Barometro: 1041 hPa
Summary: Sereno
Visibility: greater than 10 km
2020/01/21 00:20 LIRQ 210020Z 30006KT 250V320 CAVOK 08/00 Q1041
 
LIPK - Forli (civ/It-Af, Italy
Dati ricevuti: 20/01/2020 17:50
Non Attivo
Parz. nuvoloso
Parz. nuvoloso
 Vento da varies
Vento: varies 4 km/h
Temperatura: 7°C
P.to Rugiada: -2°C
Umidità: 53%
Barometro: 1041 hPa
Clouds: Parz. nuvoloso
Visibility: 10 km
Cloud details: Parz. nuvoloso 914 m
2020/01/20 16:50 LIPK 201650Z VRB02KT 9999 SCT030 07/M02 Q1041
LIRS - Grosseto (it-Afb, Italy
Dati ricevuti: 21/01/2020 00:55
Sereno
Sereno
 Vento da NNE
Vento: NNE 20 km/h
Temperatura: 8°C
Temperatura del Vento: 4°C
P.to Rugiada: 2°C
Umidità: 66%
Barometro: 1038 hPa
Summary: Sereno
Visibility: greater than 10 km
2020/01/20 23:55 LIRS 202355Z 02011KT CAVOK 08/02 Q1038
 
LIRP - Pisa (civ/It-Afb, Italy
Dati ricevuti: 21/01/2020 01:15
Sereno
Sereno
 Vento da ESE
Vento: ESE 22 km/h
Temperatura: 5°C
Temperatura del Vento: 1°C
P.to Rugiada: -1°C
Umidità: 66%
Barometro: 1039 hPa
Summary: Sereno
Visibility: greater than 10 km
2020/01/21 00:15 LIRP 210015Z 12012KT CAVOK 05/M01 Q1039 TEMPO 07010G20KT
LIVF - Frontone, Italy
Dati ricevuti: 20/01/2020 22:55
Non Attivo
Few Clouds
Few Clouds
 Vento da calm
Vento: Calma
Temperatura: 3°C
P.to Rugiada: 0°C
Umidità: 81%
Barometro: 1038 hPa
Clouds: Few Clouds
Visibility: 10 km
Cloud details: Few Clouds 762 m
2020/01/20 21:55 LIVF 202155Z 00000KT 9999 FEW025 03/00 Q1038
 
LIPC - Cervia (it-Afb), Italy
Dati ricevuti: 21/01/2020 00:55
Few Clouds
Few Clouds
 Vento da O
Vento: O 13 km/h
Temperatura: 2°C
Temperatura del Vento: -1°C
P.to Rugiada: 1°C
Umidità: 93%
Barometro: 1043 hPa
Clouds: Few Clouds
Visibility: 10 km
Cloud details: Few Clouds 1219 m
2020/01/20 23:55 LIPC 202355Z 28007KT 9999 FEW040 02/01 Q1043
LIPR - Rimini (civ/It-A, Italy
Dati ricevuti: 21/01/2020 01:20
Few Clouds
Few Clouds
 Vento da O
Vento: O 15 km/h
Temperatura: 4°C
Temperatura del Vento: 1°C
P.to Rugiada: 1°C
Umidità: 81%
Barometro: 1043 hPa
Clouds: Few Clouds
Visibility: 10 km
Cloud details: Few Clouds 1067 m
2020/01/21 00:20 LIPR 210020Z AUTO 28008KT 9999 FEW035/// 04/01 Q1043
 
LIRX - Monte Calamita, Italy
Dati ricevuti: 20/01/2020 19:55
Non Attivo
Sereno
Sereno
 Vento da NNE
Vento: NNE 37 km/h
Temperatura: 7°C
Temperatura del Vento: 2°C
P.to Rugiada: 3°C
Umidità: 76%
Barometro: 1034 hPa
Summary: Sereno
Visibility: greater than 10 km
2020/01/20 18:55 LIRX 201855Z 03020KT CAVOK 07/03 Q1034 RMK OVC SCT060 OVC100 VIS MIN 9999 VIS MAR 30 KM
LIVM - Punta Marina/Rav, Italy
Dati ricevuti: 21/01/2020 00:55

 Vento da varies
Vento: varies 4 km/h
Temperatura: 7°C
P.to Rugiada: 4°C
Umidità: 81%
Barometro: 1043 hPa
2020/01/20 23:55 LIVM 202355Z AUTO VRB02KT //// 07/04 Q1043